Ana Sayfa
METAR-TAF:

METAR-TAF

Havaalanları :

George Town, Grand Cayman, Cayman Adaları

Enlem: 19-17N, Boylam: 081-21W, yükseklik: 3 m

Güncel hava durumu gözlemi

Rapor saat 02:00 UTC de 1 saat ve 6 dakika önce yapıldı.
Rüzgar kuzey/kuzeydoğudan 5 kt, kuzey ve doğu/kuzeydoğu arasında değişken
Sıcaklık 26°C
Nem 74%
Basınç 1018 hPa
Görüş mesafesi 10 km veya daha fazla
2200 ft yükseklikte az bulutlu

METAR: MWCR 080200Z 03005KT 360V070 9999 FEW022 26/21 Q1018

Saat: 22:06 (03:06 UTC)

Tahmin

Rapor saat 23:00 UTC de 4 saat ve 6 dakika önce yapıldı.
Ayın 08'si saat 00 UTC'den ayın 08'si saat 24 UTC'ye kadar geçerli Tahmin
Rüzgar kuzey/kuzeydoğudan 13 kt
Görüş mesafesi 10 km veya daha fazla
1800 ft yükseklikte parçalı bulutlu
Olasılık 30% :
Geçici
ayın 08'si saat 06 UTC'den ayın 08'si saat 12 UTC'ye kadar
Görüş mesafesi: 9000 m
1600 ft yükseklikte parçalı bulutlu
sağanak yağmurlar

TAF: MWCR 072300Z 0800/0824 03013KT 9999 SCT018 PROB30 TEMPO 0806/0812 9000 SHRA SCT016

4.000'den fazla havaalanı için hava durumu gözlemleri ve tahminleri (METAR ve TAF raporları).

Kullanılabilir istasyonlar harita üzerinde sarı ve kırmızı noktalarla gösterilir.

İstasyonun adını görmek için fareyi noktanın üzerinde gezdirin.

Sonrasında hava gözlem ve tahminlerini görmek için tıklayın.

Haritayı değiştirmek için: yaklaştırmak için siyah artı işaretli yeşil düğmeye ve uzaklaştırmak için de eksi işaretli düğmeye hızla tıklayın; bitişik haritalar için yeşil okları kullanın.


METAR-TAF: